Flight Track Log - Related Links

Times and Time Zones

All times are in EDT time to prevent confusion due to time zone crossing. See the N770NC flight status page for this flight to view local times or setup timezone preferences in your user account.

Time Position Orientation Groundspeed Altitude Reporting Facility
EDT Latitude Longitude Course Direction KTS MPH feet Rate Location/Type
Sun 06:40:55 AM 32.1772 -81.1303 287° West 237 273 3,000  Level Jacksonville Center
Sun 06:41:55 AM 32.2239 -81.1908 312° West 274 315 5,300 2,650 Climbing Jacksonville Center
Sun 06:42:00 AM 32.2316 -81.5929 287° West  Level FlightAware Approximate
Sun 06:42:55 AM 32.2503 -81.2836 289° West 274 315 8,300  Level Jacksonville Center
Sun 06:43:00 AM 32.2573 -81.6934 288° West  Level FlightAware Approximate
Sun 06:43:55 AM 32.2617 -81.3644 279° West 279 321 10,100  Level Jacksonville Center
Sun 06:44:00 AM 32.2846 -81.7933 288° West  Level FlightAware Approximate
Sun 06:44:55 AM 32.2903 -81.4794 286° West 315 362 11,700  Level Jacksonville Center
Sun 06:45:00 AM 32.3090 -81.8858 287° West  Level FlightAware Approximate
Sun 06:45:55 AM 32.3183 -81.5822 288° West 332 382 13,900  Level Jacksonville Center
Sun 06:46:00 AM 32.3323 -81.9787 287° West  Level FlightAware Approximate
Sun 06:48:20 AM 32.3847 -81.8522 286° West 349 402 17,900  Level Atlanta Center
Sun 06:49:20 AM 32.4097 -81.9747 284° West 373 429 19,300 1,000 Climbing Atlanta Center
Sun 06:50:20 AM 32.4286 -82.1119 279° West 404 465 19,900 350 Climbing Atlanta Center
Sun 06:51:20 AM 32.4475 -82.2469 279° West 420 483 20,000 50 Climbing Atlanta Center
Sun 06:52:20 AM 32.4703 -82.3844 281° West 425 489 20,000  Level Atlanta Center
Sun 06:53:20 AM 32.4925 -82.5047 282° West 410 472 20,000  Level Atlanta Center
Sun 06:54:20 AM 32.5169 -82.6200 284° West 384 442 20,000 50 Level Atlanta Center
Sun 06:55:20 AM 32.5347 -82.7158 282° West 345 397 20,100 50 Climbing Atlanta Center
Sun 06:56:20 AM 32.5608 -82.8164 287° West 328 377 20,100 -50 Level Atlanta Center
Sun 06:57:20 AM 32.6097 -82.9044 303° West 323 372 20,000  Descending Atlanta Center
Sun 06:58:20 AM 32.6794 -83.0022 310° West 331 381 20,100  Climbing Atlanta Center
Sun 06:59:20 AM 32.7428 -83.0856 312° West 339 390 20,000  Descending Atlanta Center
Sun 07:00:20 AM 32.7933 -83.1617 308° West 345 397 20,100  Climbing Atlanta Center
Sun 07:01:20 AM 32.8628 -83.2597 310° West 349 402 20,000 -50 Descending Atlanta Center
Sun 07:02:20 AM 32.9261 -83.3408 313° West 344 396 20,000  Level Atlanta Center
Sun 07:03:20 AM 32.9869 -83.4319 309° West 344 396 20,000 -750 Level Atlanta Center
Sun 07:04:20 AM 33.0564 -83.5283 311° West 358 412 18,500 -1,800 Descending Atlanta Center
Sun 07:05:20 AM 33.1194 -83.6272 307° West 374 430 16,400 -2,351 Descending Atlanta Center
Sun 07:05:57 AM 33.1667 -83.6833 315° West 372 428 14,700 -1,423 Descending Atlanta TRACON
Sun 07:06:57 AM 33.2333 -83.7833 309° West 361 415 14,100 -526 Descending Atlanta TRACON
Sun 07:07:51 AM 33.2833 -83.8500 312° West 351 404 13,700 -795 Descending Atlanta TRACON
Sun 07:08:20 AM 33.3100 -83.9047 300° West 358 412 13,000 -1,213 Descending Atlanta Center
Sun 07:09:20 AM 33.3642 -84.0139 301° West 367 422 11,900 -500 Descending Atlanta Center
Sun 07:10:20 AM 33.4164 -84.1208 300° West 384 442 12,000 66 Climbing Atlanta Center
Sun 07:10:51 AM 33.4500 -84.1833 303° West 381 438 12,000  Level Atlanta TRACON
Sun 07:11:46 AM 33.5000 -84.2667 306° West 356 410 12,000 -211 Level Atlanta TRACON
Sun 07:12:45 AM 33.5500 -84.3500 306° West 281 323 11,600 -383 Descending Atlanta TRACON
Sun 07:13:20 AM 33.5494 -84.3953 269° West 307 353 11,400 -1,137 Descending Atlanta Center
Sun 07:14:20 AM 33.5472 -84.4800 268° West 260 299 9,800 -1,727 Descending Atlanta Center
Sun 07:16:45 AM 33.5500 -84.6667 271° West 213 245 5,500 -1,522 Descending Atlanta TRACON
Sun 07:17:45 AM 33.6000 -84.6833 344° North 184 212 4,600 -1,105 Descending Atlanta TRACON
Sun 07:18:39 AM 33.6333 -84.6500 40° Northeast 181 208 3,400 -842 Descending Atlanta TRACON
Sun 07:19:39 AM 33.6333 -84.5833 90° East 181 208 3,000 -400 Descending Atlanta TRACON

Login

Don't have an account? Register now (free) for customized features, flight alerts, and more!